Time;durP1;ratioP1;P1;durP2;ratioP2;P2;SDS_P1;SDS_P2;PMS_P1;PMS_P2;Temp;Humidity;BMP_temperature;BMP_pressure;BME280_temperature;BME280_humidity;BME280_pressure;Samples;Min_cycle;Max_cycle;Signal;HPM_P1;HPM_P2
2022/10/04 00:01:52;;;;;;;1.93;1.83;;;;;;;7.56;100.00;99802.81;4994907;28;20027;-71
2022/10/04 00:04:33;;;;;;;2.50;1.93;;;;;;;7.58;100.00;99805.31;4994318;28;20474;-74
2022/10/04 00:07:04;;;;;;;2.90;2.23;;;;;;;7.59;100.00;99799.84;4994229;28;20537;-71
2022/10/04 00:09:45;;;;;;;2.77;2.10;;;;;;;7.61;100.00;99812.91;4994328;28;20026;-75
2022/10/04 00:12:24;;;;;;;2.40;2.20;;;;;;;7.65;100.00;99820.34;4994066;28;20040;-74
2022/10/04 00:14:54;;;;;;;2.37;2.17;;;;;;;7.60;100.00;99804.13;4993841;28;20026;-74
2022/10/04 00:17:26;;;;;;;2.53;2.33;;;;;;;7.66;100.00;99803.47;4993838;28;20041;-73
2022/10/04 00:19:53;;;;;;;2.50;2.30;;;;;;;7.68;100.00;99803.28;4993693;28;20049;-73
2022/10/04 00:22:23;;;;;;;2.50;2.30;;;;;;;7.72;100.00;99809.91;4993817;28;20039;-75
2022/10/04 00:25:08;;;;;;;5.70;2.60;;;;;;;7.75;100.00;99805.09;4993839;28;20121;-72
2022/10/04 00:27:36;;;;;;;2.80;2.40;;;;;;;7.74;100.00;99808.75;4976538;28;20089;-74
2022/10/04 00:30:03;;;;;;;2.87;2.67;;;;;;;7.74;100.00;99819.34;4993299;28;20366;-72
2022/10/04 00:32:40;;;;;;;2.93;2.60;;;;;;;7.75;100.00;99813.03;4993772;28;20129;-72
2022/10/04 00:35:24;;;;;;;2.97;2.67;;;;;;;7.79;100.00;99813.53;4993314;28;20401;-72
2022/10/04 00:38:05;;;;;;;2.70;2.50;;;;;;;7.77;100.00;99813.72;4993408;28;20478;-72
2022/10/04 00:40:41;;;;;;;3.57;2.87;;;;;;;7.81;100.00;99818.69;4993889;28;20026;-73
2022/10/04 00:43:19;;;;;;;3.57;3.00;;;;;;;7.82;100.00;99815.88;4995540;28;20030;-73
2022/10/04 00:45:47;;;;;;;;;;;;;;;7.85;100.00;99820.03;5008900;28;20022;-73
2022/10/04 00:48:29;;;;;;;3.88;2.95;;;;;;;7.78;100.00;99807.41;5001874;28;19916;-73
2022/10/04 00:51:24;;;;;;;4.53;3.10;;;;;;;7.84;100.00;99813.06;5002555;28;20037;-72
2022/10/04 00:53:49;;;;;;;3.50;3.20;;;;;;;7.86;100.00;99813.72;4970603;28;20038;-74
2022/10/04 00:56:24;;;;;;;3.73;3.40;;;;;;;7.87;100.00;99815.38;4996766;28;20037;-72
2022/10/04 00:59:04;;;;;;;3.47;3.17;;;;;;;7.85;100.00;99820.03;4993409;28;20112;-74
2022/10/04 01:01:33;;;;;;;4.27;3.03;;;;;;;7.87;100.00;99821.50;4975920;28;20494;-75
2022/10/04 01:04:02;;;;;;;4.80;3.10;;;;;;;7.90;100.00;99828.28;4993851;28;20034;-74
2022/10/04 01:06:28;;;;;;;2.67;2.30;;;;;;;7.86;100.00;99821.66;4993662;28;20026;-73
2022/10/04 01:08:59;;;;;;;2.20;2.00;;;;;;;7.88;100.00;99830.28;4993451;28;20092;-72
2022/10/04 01:11:33;;;;;;;3.20;2.80;;;;;;;7.89;100.00;99831.94;5001969;28;20085;-71
2022/10/04 01:14:52;;;;;;;2.83;2.40;;;;;;;7.89;100.00;99831.94;5007970;28;20050;-72
2022/10/04 01:17:18;;;;;;;2.27;2.07;;;;;;;7.85;100.00;99826.16;5005701;28;20069;-71
2022/10/04 01:19:53;;;;;;;6.33;3.33;;;;;;;7.88;100.00;99831.09;4998517;28;20062;-72
2022/10/04 01:22:42;;;;;;;3.03;2.70;;;;;;;7.87;100.00;99836.59;4975709;28;20026;-73
2022/10/04 01:25:44;;;;;;;7.33;2.73;;;;;;;7.88;100.00;99839.06;4965082;28;20073;-76
2022/10/04 01:28:38;;;;;;;2.53;2.30;;;;;;;7.70;100.00;99811.91;4965510;28;20027;-78
2022/10/04 01:31:05;;;;;;;4.10;2.47;;;;;;;7.72;100.00;99813.38;4945421;28;20043;-76
2022/10/04 01:33:31;;;;;;;3.73;2.57;;;;;;;7.75;100.00;99822.81;4960765;28;20054;-77
2022/10/04 01:36:00;;;;;;;2.90;2.10;;;;;;;7.71;100.00;99824.16;4962041;28;20030;-77
2022/10/04 01:38:28;;;;;;;2.60;2.40;;;;;;;7.73;100.00;99825.66;4961403;28;20062;-77
2022/10/04 01:40:59;;;;;;;3.53;2.38;;;;;;;7.88;100.00;99851.50;4960952;28;20480;-77
2022/10/04 01:43:31;;;;;;;3.23;2.40;;;;;;;7.67;100.00;99813.06;4958943;28;20134;-75
2022/10/04 01:46:25;;;;;;;4.83;2.30;;;;;;;7.82;100.00;99845.03;4955243;28;20051;-76
2022/10/04 01:49:06;;;;;;;3.93;2.23;;;;;;;7.88;100.00;99856.78;4971855;28;20095;-75
2022/10/04 01:51:41;;;;;;;6.50;2.13;;;;;;;7.87;100.00;99850.66;4955269;28;20027;-74
2022/10/04 01:54:18;;;;;;;2.53;2.33;;;;;;;7.87;100.00;99850.66;4973186;28;20031;-72
2022/10/04 01:56:45;;;;;;;3.13;2.37;;;;;;;7.88;100.00;99857.63;4975827;28;20046;-73
2022/10/04 01:59:25;;;;;;;5.53;3.13;;;;;;;7.90;100.00;99858.28;4977033;28;20027;-73
2022/10/04 02:02:07;;;;;;;3.70;2.97;;;;;;;7.97;100.00;99859.25;4977193;28;20027;-73
2022/10/04 02:04:37;;;;;;;3.23;2.93;;;;;;;7.97;100.00;99858.44;4977400;28;20038;-73
2022/10/04 02:07:11;;;;;;;3.17;2.50;;;;;;;7.99;100.00;99867.88;4977022;28;20061;-74
2022/10/04 02:09:42;;;;;;;2.73;2.20;;;;;;;7.93;100.00;99860.59;4977153;28;20031;-74
2022/10/04 02:12:09;;;;;;;2.30;1.97;;;;;;;7.91;100.00;99864.41;4976845;28;20165;-73
2022/10/04 02:14:38;;;;;;;4.67;2.17;;;;;;;7.88;100.00;99862.09;4976934;28;20042;-73
2022/10/04 02:17:09;;;;;;;3.05;2.00;;;;;;;7.87;100.00;99871.03;4976590;28;20492;-73
2022/10/04 02:19:38;;;;;;;3.40;2.40;;;;;;;7.84;100.00;99868.72;4976754;28;20043;-73
2022/10/04 02:22:06;;;;;;;3.00;2.60;;;;;;;7.85;100.00;99878.34;4976520;28;20173;-74
2022/10/04 02:24:36;;;;;;;3.30;2.13;;;;;;;7.84;100.00;99876.69;4976563;28;20467;-73
2022/10/04 02:27:02;;;;;;;2.93;2.40;;;;;;;7.87;100.00;99889.59;4976718;28;20056;-74
2022/10/04 02:29:29;;;;;;;2.77;2.07;;;;;;;7.84;100.00;99896.06;4984357;28;20393;-74
2022/10/04 02:34:39;;;;;;;2.93;2.63;;;;;;;7.83;100.00;99896.22;4995730;28;20037;-73
2022/10/04 02:37:06;;;;;;;3.93;2.57;;;;;;;7.85;100.00;99896.88;4995626;28;20041;-74
2022/10/04 02:40:09;;;;;;;4.40;3.10;;;;;;;7.88;100.00;99899.22;4995971;28;20096;-73
2022/10/04 02:43:05;;;;;;;3.37;2.93;;;;;;;7.86;100.00;99901.19;4995754;28;20029;-74
2022/10/04 02:45:40;;;;;;;3.67;2.60;;;;;;;7.80;100.00;99891.22;4995749;28;20432;-74
2022/10/04 02:48:32;;;;;;;5.43;2.80;;;;;;;7.87;100.00;99900.19;4995858;28;20030;-73
2022/10/04 02:51:13;;;;;;;3.20;2.50;;;;;;;7.85;100.00;99902.19;4984672;28;20034;-74
2022/10/04 02:53:45;;;;;;;2.70;2.20;;;;;;;7.81;100.00;99912.31;4995226;28;20026;-75
2022/10/04 02:56:12;;;;;;;2.20;2.00;;;;;;;7.76;100.00;99912.78;4995618;28;20033;-73
2022/10/04 02:58:40;;;;;;;4.73;2.20;;;;;;;7.77;100.00;99919.72;4995658;28;20031;-76
2022/10/04 03:01:05;;;;;;;2.22;1.92;;;;;;;7.75;100.00;99912.94;4995433;28;20033;-73
2022/10/04 03:03:35;;;;;;;2.73;2.50;;;;;;;7.69;100.00;99906.47;4995756;28;20467;-73
2022/10/04 03:06:04;;;;;;;2.30;2.03;;;;;;;7.76;100.00;99918.06;4995138;28;20081;-74
2022/10/04 03:08:34;;;;;;;1.85;1.73;;;;;;;7.71;100.00;99922.22;4994438;28;20113;-73
2022/10/04 03:11:03;;;;;;;2.40;2.17;;;;;;;7.66;100.00;99920.06;4977741;28;20517;-73
2022/10/04 03:13:30;;;;;;;2.20;2.00;;;;;;;7.58;100.00;99928.00;4994943;28;20375;-74
2022/10/04 03:15:57;;;;;;;4.35;2.35;;;;;;;7.57;100.00;99929.00;4994975;28;20062;-74
2022/10/04 03:18:23;;;;;;;2.70;2.50;;;;;;;7.57;100.00;99938.78;4977695;28;20026;-73
2022/10/04 03:20:49;;;;;;;2.63;2.07;;;;;;;7.53;100.00;99925.03;4995268;28;20039;-74
2022/10/04 03:23:17;;;;;;;2.27;1.63;;;;;;;7.52;100.00;99931.31;4995105;28;20035;-74
2022/10/04 03:25:51;;;;;;;1.75;1.65;;;;;;;7.49;100.00;99936.91;4994957;28;20031;-74
2022/10/04 03:28:17;;;;;;;1.93;1.83;;;;;;;7.43;100.00;99932.28;4995487;28;20038;-74
2022/10/04 03:30:46;;;;;;;2.43;1.70;;;;;;;7.40;100.00;99937.91;4994963;28;20096;-75
2022/10/04 03:33:16;;;;;;;2.40;1.83;;;;;;;7.37;100.00;99943.53;4977144;28;20034;-74
2022/10/04 03:35:46;;;;;;;2.17;2.00;;;;;;;7.32;100.00;99946.66;4994913;28;20053;-74
2022/10/04 03:38:14;;;;;;;2.03;1.90;;;;;;;7.30;100.00;99947.81;4994750;28;20026;-73
2022/10/04 03:40:46;;;;;;;1.90;1.70;;;;;;;7.28;100.00;99944.50;4994898;28;20045;-73
2022/10/04 03:43:13;;;;;;;1.77;1.47;;;;;;;7.29;100.00;99957.59;4994725;28;20355;-74
2022/10/04 03:45:40;;;;;;;2.70;1.77;;;;;;;7.25;100.00;99950.13;4994923;28;20069;-74
2022/10/04 03:48:11;;;;;;;2.10;1.90;;;;;;;7.24;100.00;99953.78;4999297;28;20022;-73
2022/10/04 03:50:45;;;;;;;1.80;1.70;;;;;;;7.23;100.00;99952.09;5008736;28;20034;-73
2022/10/04 03:53:27;;;;;;;2.43;1.60;;;;;;;7.15;100.00;99945.78;5008889;28;20034;-73
2022/10/04 03:55:52;;;;;;;2.23;1.90;;;;;;;7.22;100.00;99955.72;5009576;28;20030;-74
2022/10/04 03:58:19;;;;;;;4.63;2.43;;;;;;;7.25;100.00;99960.72;5011333;28;20033;-74
2022/10/04 04:01:23;;;;;;;1.70;1.60;;;;;;;7.24;100.00;99957.25;5008618;28;20026;-73
2022/10/04 04:03:58;;;;;;;2.33;2.13;;;;;;;7.19;100.00;99961.34;4998846;28;20478;-74
2022/10/04 04:06:26;;;;;;;2.57;1.97;;;;;;;7.11;100.00;99964.78;4993666;28;20492;-74
2022/10/04 04:08:53;;;;;;;;;;;;;;;7.06;100.00;99973.22;4989193;28;20034;-77
2022/10/04 04:11:28;;;;;;;3.93;1.83;;;;;;;7.06;100.00;99975.03;4986911;28;20004;-76
2022/10/04 04:13:59;;;;;;;4.43;2.67;;;;;;;7.09;100.00;99972.06;4994339;28;20031;-75
2022/10/04 04:16:28;;;;;;;2.90;2.53;;;;;;;7.08;100.00;99965.94;4994254;28;20045;-73
2022/10/04 04:19:00;;;;;;;3.37;2.63;;;;;;;7.08;100.00;99967.75;4979415;28;20023;-73
2022/10/04 04:21:27;;;;;;;2.50;2.20;;;;;;;7.11;100.00;99984.16;4957183;28;20073;-74
2022/10/04 04:23:57;;;;;;;4.17;2.77;;;;;;;7.12;100.00;99983.16;4974705;28;20033;-69
2022/10/04 04:26:23;;;;;;;4.23;2.70;;;;;;;7.13;100.00;99979.53;4984899;28;20113;-75
2022/10/04 04:28:53;;;;;;;6.93;2.30;;;;;;;7.17;100.00;99974.75;4995865;28;20088;-74
2022/10/04 04:31:34;;;;;;;2.70;2.50;;;;;;;7.20;100.00;99968.28;4962526;28;20037;-76
2022/10/04 04:34:02;;;;;;;2.93;2.50;;;;;;;7.01;100.00;99941.09;4962901;28;20093;-75
2022/10/04 04:36:30;;;;;;;3.78;3.17;;;;;;;7.11;100.00;99962.16;4996578;28;20058;-72
2022/10/04 04:39:35;;;;;;;3.00;2.80;;;;;;;7.20;100.00;99981.53;4996328;28;20026;-73
2022/10/04 04:42:46;;;;;;;5.27;2.83;;;;;;;7.22;100.00;99980.38;4959643;28;20081;-78
2022/10/04 04:45:17;;;;;;;2.70;2.50;;;;;;;7.19;100.00;99983.34;4949128;28;20034;-73
2022/10/04 04:47:46;;;;;;;3.47;3.17;;;;;;;7.07;100.00;99956.34;4977034;28;20053;-73
2022/10/04 04:50:15;;;;;;;3.20;2.90;;;;;;;7.20;100.00;99984.19;4994935;28;20022;-73
2022/10/04 04:52:43;;;;;;;;;;;;;;;7.25;100.00;99981.91;4978101;28;20027;-72
2022/10/04 04:55:20;;;;;;;4.18;2.97;;;;;;;7.24;100.00;99991.69;4995025;28;19909;-71
2022/10/04 04:57:48;;;;;;;3.27;2.97;;;;;;;7.27;100.00;99985.22;4994936;28;20381;-71
2022/10/04 05:00:17;;;;;;;3.25;2.95;;;;;;;7.28;100.00;99986.88;4994268;28;20030;-72
2022/10/04 05:02:56;;;;;;;3.27;2.97;;;;;;;7.28;100.00;99976.28;4993416;28;20120;-72
2022/10/04 05:05:25;;;;;;;5.87;3.97;;;;;;;7.31;100.00;99982.09;4993376;28;20462;-73
2022/10/04 05:08:09;;;;;;;4.30;3.90;;;;;;;7.38;100.00;99987.56;4993200;28;20417;-71
2022/10/04 05:10:35;;;;;;;4.00;3.07;;;;;;;7.37;100.00;99999.16;4993074;28;20065;-72
2022/10/04 05:13:03;;;;;;;4.97;3.03;;;;;;;7.28;100.00;99986.88;4992794;28;20477;-72
2022/10/04 05:15:34;;;;;;;4.50;3.22;;;;;;;7.29;100.00;99992.03;4993111;28;20045;-71
2022/10/04 05:18:02;;;;;;;4.70;3.03;;;;;;;7.36;100.00;99989.56;4992783;28;20194;-72
2022/10/04 05:20:30;;;;;;;9.10;3.83;;;;;;;7.46;100.00;99991.06;4992570;28;20037;-72
2022/10/04 05:22:57;;;;;;;6.70;3.47;;;;;;;7.47;100.00;99986.59;4992608;28;20026;-72
2022/10/04 05:25:31;;;;;;;3.13;2.83;;;;;;;7.51;100.00;99987.94;4992595;28;20359;-71
2022/10/04 05:27:56;;;;;;;4.57;2.87;;;;;;;7.46;100.00;99980.47;4992466;28;20022;-72
2022/10/04 05:30:53;;;;;;;3.83;3.43;;;;;;;7.47;100.00;99976.81;4992186;28;20540;-72
2022/10/04 05:33:44;;;;;;;4.57;2.90;;;;;;;7.27;100.00;99943.69;4992306;28;20073;-72
2022/10/04 05:36:24;;;;;;;5.10;4.17;;;;;;;7.54;100.00;99987.63;4992788;28;20470;-73
2022/10/04 05:39:02;;;;;;;6.67;3.67;;;;;;;7.46;100.00;99969.88;4993749;28;20034;-74
2022/10/04 05:41:50;;;;;;;4.28;3.30;;;;;;;7.62;100.00;99989.47;4992942;28;20034;-78
2022/10/04 05:44:29;;;;;;;7.37;3.33;;;;;;;7.66;100.00;99991.63;4998915;28;20038;-71
2022/10/04 05:46:57;;;;;;;4.50;3.80;;;;;;;7.67;100.00;99998.56;4997419;28;20034;-72
2022/10/04 05:49:27;;;;;;;4.17;3.77;;;;;;;7.68;100.00;99999.41;4995262;28;20026;-73
2022/10/04 05:51:59;;;;;;;6.43;3.63;;;;;;;7.69;100.00;99999.25;4993497;28;20031;-73
2022/10/04 05:54:35;;;;;;;5.67;3.50;;;;;;;7.72;100.00;100001.56;4992596;28;20416;-73
2022/10/04 05:57:27;;;;;;;5.37;3.77;;;;;;;7.78;100.00;99995.59;4992482;28;20396;-77
2022/10/04 06:00:15;;;;;;;5.50;3.30;;;;;;;7.81;100.00;99996.31;4981896;28;20046;-74
2022/10/04 06:03:17;;;;;;;5.50;3.65;;;;;;;7.83;100.00;99999.63;4990897;28;20030;-73
2022/10/04 06:05:50;;;;;;;8.57;4.57;;;;;;;7.76;100.00;100002.91;4994083;28;20029;-72
2022/10/04 06:08:44;;;;;;;5.03;2.70;;;;;;;7.83;100.00;100008.41;5001529;28;20072;-73
2022/10/04 06:11:15;;;;;;;5.13;3.70;;;;;;;7.83;100.00;100012.88;5002956;28;20026;-73
2022/10/04 06:14:21;;;;;;;5.93;3.73;;;;;;;7.85;100.00;100010.88;5001258;28;20026;-71
2022/10/04 06:17:25;;;;;;;6.90;3.70;;;;;;;7.88;100.00;100011.38;4993086;28;20061;-73
2022/10/04 06:20:21;;;;;;;5.13;4.60;;;;;;;7.90;100.00;100008.56;4975058;28;20379;-73
2022/10/04 06:22:52;;;;;;;6.10;3.53;;;;;;;7.81;100.00;100002.44;4975156;28;20405;-74
2022/10/04 06:25:28;;;;;;;7.17;4.27;;;;;;;7.90;100.00;100008.56;4992693;28;20033;-73
2022/10/04 06:28:12;;;;;;;5.77;4.03;;;;;;;7.93;100.00;100010.88;4992740;28;20152;-73
2022/10/04 06:31:06;;;;;;;4.53;3.50;;;;;;;7.99;100.00;100012.88;4992530;28;20545;-73
2022/10/04 06:33:46;;;;;;;4.80;4.00;;;;;;;7.96;100.00;100007.91;4992400;28;20109;-73
2022/10/04 06:36:33;;;;;;;4.80;3.33;;;;;;;7.96;100.00;100008.72;4993995;28;20029;-73
2022/10/04 06:39:39;;;;;;;6.37;4.00;;;;;;;7.95;100.00;100016.84;5013718;28;20030;-73
2022/10/04 06:42:22;;;;;;;7.50;4.70;;;;;;;8.00;100.00;100007.41;5008490;28;20022;-73
2022/10/04 06:45:06;;;;;;;6.93;4.20;;;;;;;7.90;100.00;99997.97;5019449;28;20033;-73
2022/10/04 06:47:59;;;;;;;4.43;3.63;;;;;;;7.97;100.00;100012.22;5009596;28;20023;-74
2022/10/04 06:50:41;;;;;;;5.00;4.17;;;;;;;7.95;100.00;100011.56;4997092;28;20117;-73
2022/10/04 06:53:18;;;;;;;3.67;3.37;;;;;;;7.95;100.00;100015.03;4997174;28;20026;-74
2022/10/04 06:56:08;;;;;;;7.07;4.40;;;;;;;8.04;100.00;100013.22;4997091;28;20038;-72
2022/10/04 06:58:58;;;;;;;8.43;4.00;;;;;;;8.01;100.00;100018.84;4995328;28;20070;-72
2022/10/04 07:01:28;;;;;;;4.20;3.57;;;;;;;8.03;100.00;100019.50;4995309;28;20024;-74
2022/10/04 07:03:53;;;;;;;6.27;3.83;;;;;;;8.05;100.00;100012.22;4995263;28;20033;-73
2022/10/04 07:06:26;;;;;;;5.93;4.07;;;;;;;7.99;100.00;100008.41;4995450;28;20030;-74
2022/10/04 07:09:01;;;;;;;6.53;4.37;;;;;;;7.96;100.00;99992.81;4995311;28;20031;-73
2022/10/04 07:11:44;;;;;;;5.60;4.10;;;;;;;8.00;100.00;100006.56;4994986;28;20026;-74
2022/10/04 07:14:23;;;;;;;5.93;4.33;;;;;;;8.02;100.00;100007.25;4994663;28;20377;-73
2022/10/04 07:17:00;;;;;;;6.27;4.57;;;;;;;8.02;100.00;99996.63;4995347;28;20030;-73
2022/10/04 07:19:44;;;;;;;7.00;5.57;;;;;;;8.13;100.00;100014.88;4995184;28;20027;-74
2022/10/04 07:22:16;;;;;;;7.93;4.67;;;;;;;8.12;100.00;100015.88;4994933;28;20073;-72
2022/10/04 07:25:01;;;;;;;5.73;4.37;;;;;;;8.17;100.00;100008.25;4994875;28;20030;-72
2022/10/04 07:27:32;;;;;;;9.47;5.93;;;;;;;8.23;100.00;100006.75;4977609;28;20042;-72
2022/10/04 07:30:03;;;;;;;8.80;5.50;;;;;;;8.29;100.00;100011.41;4977406;28;20085;-72
2022/10/04 07:32:33;;;;;;;7.60;5.40;;;;;;;8.27;100.00;100006.25;4995033;28;20038;-73
2022/10/04 07:35:22;;;;;;;8.80;5.43;;;;;;;8.32;100.00;100011.06;4977178;28;20121;-73
2022/10/04 07:38:14;;;;;;;9.67;5.30;;;;;;;8.44;100.00;100015.09;4994433;28;20076;-73
2022/10/04 07:41:11;;;;;;;8.23;4.60;;;;;;;8.44;100.00;100016.91;4994937;28;20039;-72
2022/10/04 07:43:47;;;;;;;5.90;5.20;;;;;;;8.43;100.00;100018.75;4977194;28;20036;-72
2022/10/04 07:46:37;;;;;;;6.07;4.40;;;;;;;8.41;100.00;100019.91;4994447;28;20417;-72
2022/10/04 07:49:02;;;;;;;4.30;3.80;;;;;;;8.36;100.00;100015.91;4994463;28;20038;-73
2022/10/04 07:51:49;;;;;;;4.40;3.67;;;;;;;8.33;100.00;100018.88;4994242;28;20076;-73
2022/10/04 07:54:24;;;;;;;4.63;3.80;;;;;;;8.36;100.00;100029.16;4994020;28;20038;-73
2022/10/04 07:57:05;;;;;;;3.90;3.50;;;;;;;8.37;100.00;100022.03;4994446;28;20113;-72
2022/10/04 07:59:49;;;;;;;5.10;3.70;;;;;;;8.44;100.00;100028.34;4994182;28;20035;-73
2022/10/04 08:02:39;;;;;;;4.33;3.73;;;;;;;8.48;100.00;100027.03;4977067;28;20117;-73
2022/10/04 08:05:22;;;;;;;5.27;4.37;;;;;;;8.56;100.00;100027.00;4994334;28;20077;-73
2022/10/04 08:08:24;;;;;;;4.80;3.70;;;;;;;8.66;100.00;100032.13;4994134;28;20117;-75
2022/10/04 08:10:54;;;;;;;4.13;3.77;;;;;;;8.68;100.00;100046.09;4994167;28;20030;-75
2022/10/04 08:13:49;;;;;;;4.20;3.20;;;;;;;8.65;100.00;100041.09;4994183;28;20031;-74
2022/10/04 08:16:30;;;;;;;7.57;3.47;;;;;;;8.74;100.00;100042.75;4993916;28;20030;-72
2022/10/04 08:19:25;;;;;;;6.03;4.60;;;;;;;9.00;100.00;100038.06;4993704;28;20034;-73
2022/10/04 08:22:22;;;;;;;4.20;3.60;;;;;;;9.37;100.00;100043.75;4993731;28;20031;-72
2022/10/04 08:25:03;;;;;;;7.67;4.27;;;;;;;9.56;100.00;100052.16;4993563;28;20045;-73
2022/10/04 08:31:08;;;;;;;5.17;3.40;;;;;;;9.84;100.00;100054.34;4914474;29;20138;-73
2022/10/04 08:33:45;;;;;;;6.13;3.90;;;;;;;9.97;100.00;100049.25;4993575;28;20089;-72
2022/10/04 08:36:11;;;;;;;4.13;3.43;;;;;;;10.12;100.00;100058.16;4993738;28;20069;-73
2022/10/04 08:38:43;;;;;;;4.00;3.60;;;;;;;10.14;100.00;100050.81;4993305;28;20685;-73
2022/10/04 08:41:19;;;;;;;4.30;3.00;;;;;;;10.31;100.00;100058.69;4993274;28;20034;-73
2022/10/04 08:44:14;;;;;;;4.67;3.40;;;;;;;10.27;99.90;100060.06;4993274;28;20527;-74
2022/10/04 08:46:45;;;;;;;2.60;2.40;;;;;;;10.16;98.41;100063.94;4993440;28;20034;-73
2022/10/04 08:49:30;;;;;;;5.27;2.67;;;;;;;10.19;99.28;100066.25;4993384;28;20117;-73
2022/10/04 08:52:33;;;;;;;3.93;2.77;;;;;;;10.16;98.27;100075.41;4993261;28;20041;-73
2022/10/04 08:55:19;;;;;;;5.30;3.37;;;;;;;10.05;99.45;100067.81;4993200;28;20030;-74
2022/10/04 08:58:12;;;;;;;3.63;3.33;;;;;;;10.09;100.00;100074.44;4993058;28;20026;-73
2022/10/04 09:01:15;;;;;;;6.43;4.60;;;;;;;10.21;100.00;100077.56;4993105;28;20038;-73
2022/10/04 09:03:41;;;;;;;2.40;2.20;;;;;;;10.15;96.69;100072.94;4993266;28;20210;-73
2022/10/04 09:06:42;;;;;;;2.93;2.70;;;;;;;9.95;96.29;100088.50;4992463;28;20121;-72
2022/10/04 09:09:33;;;;;;;6.53;3.00;;;;;;;9.84;98.24;100091.56;4982554;28;20034;-74
2022/10/04 09:12:18;;;;;;;5.53;2.40;;;;;;;9.73;97.74;100091.94;4992984;28;20030;-73
2022/10/04 09:14:56;;;;;;;4.27;2.50;;;;;;;9.65;98.96;100097.28;4992777;28;20533;-73
2022/10/04 09:17:46;;;;;;;3.70;3.27;;;;;;;9.77;99.05;100106.53;4992805;28;20466;-73
2022/10/04 09:20:48;;;;;;;7.67;3.70;;;;;;;9.80;97.41;100117.66;4993320;28;20033;-72
2022/10/04 09:23:44;;;;;;;4.40;3.37;;;;;;;9.74;97.59;100113.03;4992513;28;20470;-72
2022/10/04 09:26:20;;;;;;;7.47;2.75;;;;;;;9.61;97.37;100107.44;4975535;28;20046;-73
2022/10/04 09:29:08;;;;;;;2.80;2.40;;;;;;;9.60;98.17;100119.91;4992667;28;20034;-72
2022/10/04 09:32:11;;;;;;;3.20;2.97;;;;;;;9.66;98.22;100114.91;4992602;28;20038;-72
2022/10/04 09:34:57;;;;;;;3.27;2.17;;;;;;;9.70;97.35;100113.56;4992865;28;20708;-73
2022/10/04 09:38:04;;;;;;;5.67;2.83;;;;;;;9.77;97.57;100127.81;4992866;28;20113;-74
2022/10/04 09:40:50;;;;;;;2.63;2.43;;;;;;;9.58;97.67;100124.56;4962485;28;20049;-72
2022/10/04 09:43:19;;;;;;;5.40;1.97;;;;;;;9.50;96.84;100132.56;4993045;28;20031;-71
2022/10/04 09:46:43;;;;;;;2.37;1.70;;;;;;;9.62;97.62;100125.88;4976652;28;20026;-71
2022/10/04 09:49:51;;;;;;;3.20;2.20;;;;;;;9.89;97.16;100142.41;4916739;29;20036;-71
2022/10/04 09:52:28;;;;;;;2.60;1.87;;;;;;;10.06;95.92;100138.66;4915762;29;20077;-71
2022/10/04 09:54:57;;;;;;;3.63;2.00;;;;;;;10.04;95.21;100142.47;4971756;28;20509;-72
2022/10/04 09:57:32;;;;;;;4.87;2.20;;;;;;;10.07;94.50;100142.97;4995589;28;20081;-72
2022/10/04 10:00:12;;;;;;;2.67;2.10;;;;;;;10.08;94.39;100133.97;4994949;28;20030;-73
2022/10/04 10:03:23;;;;;;;3.63;2.20;;;;;;;10.15;93.30;100145.59;4993160;28;20122;-71
2022/10/04 10:06:13;;;;;;;2.00;1.70;;;;;;;10.19;91.40;100149.56;4992577;28;20041;-72
2022/10/04 10:08:38;;;;;;;6.60;2.33;;;;;;;10.24;92.24;100146.41;4975179;28;20445;-72
2022/10/04 10:14:39;;;;;;;6.20;2.83;;;;;;;10.81;90.70;100162.81;4974884;28;20030;-72
2022/10/04 10:17:23;;;;;;;2.20;2.00;;;;;;;10.97;88.97;100161.00;4993684;28;20449;-72
2022/10/04 10:20:21;;;;;;;3.70;2.70;;;;;;;11.06;87.27;100157.28;4996245;28;20478;-73
2022/10/04 10:23:02;;;;;;;4.33;2.00;;;;;;;11.00;86.92;100163.34;4996216;28;20065;-72
2022/10/04 10:25:47;;;;;;;2.13;1.93;;;;;;;11.05;85.59;100166.28;4995997;28;20026;-73
2022/10/04 10:28:31;;;;;;;2.17;1.80;;;;;;;11.16;85.19;100171.19;4996196;28;20042;-72
2022/10/04 10:31:25;;;;;;;4.70;1.90;;;;;;;11.43;81.81;100180.41;4996215;28;20054;-71
2022/10/04 10:34:21;;;;;;;2.73;1.63;;;;;;;11.66;79.75;100175.00;4996244;28;20108;-73
2022/10/04 10:37:07;;;;;;;3.70;2.00;;;;;;;11.66;80.48;100172.34;4997022;28;20034;-73
2022/10/04 10:39:55;;;;;;;2.07;1.73;;;;;;;11.69;79.97;100185.31;4998392;28;20030;-73
2022/10/04 10:42:26;;;;;;;3.20;1.93;;;;;;;11.51;79.30;100190.16;4981859;28;20026;-72
2022/10/04 10:45:10;;;;;;;1.73;1.63;;;;;;;11.10;77.15;100190.56;4998485;28;20031;-72
2022/10/04 10:47:38;;;;;;;2.47;1.80;;;;;;;11.06;78.69;100198.09;5000922;28;20030;-71
2022/10/04 10:50:19;;;;;;;;;;;;;;;11.12;78.71;100199.19;4998476;28;20026;-72
2022/10/04 10:52:44;;;;;;;2.97;1.87;;;;;;;10.93;78.92;100195.19;4997847;28;19917;-73
2022/10/04 10:55:47;;;;;;;2.00;1.70;;;;;;;10.68;79.57;100189.19;4998839;28;20045;-72
2022/10/04 10:58:34;;;;;;;2.57;2.37;;;;;;;10.82;81.85;100204.44;4995914;28;20053;-73
2022/10/04 11:01:21;;;;;;;2.07;1.57;;;;;;;10.89;80.28;100211.69;4995343;28;20030;-73
2022/10/04 11:04:05;;;;;;;2.50;2.30;;;;;;;11.02;80.52;100214.63;4995408;28;20029;-71
2022/10/04 11:07:08;;;;;;;5.03;1.77;;;;;;;11.27;78.93;100221.38;4995385;28;20031;-73
2022/10/04 11:09:36;;;;;;;3.60;1.90;;;;;;;11.41;79.05;100223.25;4995254;28;20038;-73
2022/10/04 11:12:26;;;;;;;2.15;1.90;;;;;;;11.41;76.65;100220.59;4995323;28;20030;-73
2022/10/04 11:15:05;;;;;;;2.07;1.80;;;;;;;11.33;78.39;100228.69;4995309;28;20429;-72
2022/10/04 11:18:04;;;;;;;4.00;1.70;;;;;;;11.26;78.11;100232.22;4995108;28;20026;-73
2022/10/04 11:20:44;;;;;;;2.40;1.90;;;;;;;11.14;78.62;100230.00;4995403;28;20030;-72
2022/10/04 11:23:54;;;;;;;3.03;2.73;;;;;;;11.09;79.79;100229.72;4994960;28;20105;-72
2022/10/04 11:27:00;;;;;;;3.53;1.70;;;;;;;10.97;79.17;100238.28;4994846;28;20419;-73
2022/10/04 11:29:30;;;;;;;2.77;1.60;;;;;;;10.94;79.95;100243.97;4993919;28;20149;-73
2022/10/04 11:31:59;;;;;;;4.17;1.90;;;;;;;10.90;77.75;100250.66;4994907;28;20042;-71
2022/10/04 11:35:02;;;;;;;3.87;1.70;;;;;;;10.90;78.56;100248.81;4994459;28;20493;-73
2022/10/04 11:37:52;;;;;;;3.60;1.73;;;;;;;10.88;78.11;100245.50;4994648;28;20035;-72
2022/10/04 11:40:45;;;;;;;2.57;1.60;;;;;;;10.68;78.42;100223.00;4995347;28;20113;-73
2022/10/04 11:43:40;;;;;;;2.50;1.53;;;;;;;10.88;78.85;100261.50;4994578;28;20092;-72
2022/10/04 11:46:15;;;;;;;5.60;2.03;;;;;;;10.86;78.29;100260.84;4994665;28;20034;-73
2022/10/04 11:49:00;;;;;;;3.13;1.80;;;;;;;10.84;79.32;100271.69;4994632;28;20529;-73
2022/10/04 11:51:47;;;;;;;3.23;1.87;;;;;;;10.83;78.48;100263.88;4994568;28;20085;-73
2022/10/04 11:54:40;;;;;;;1.90;1.37;;;;;;;10.80;77.18;100269.53;4994222;28;20498;-73
2022/10/04 11:57:23;;;;;;;4.00;1.50;;;;;;;10.79;77.89;100274.03;4994501;28;20023;-73
2022/10/04 11:59:58;;;;;;;2.90;1.60;;;;;;;10.88;77.79;100281.97;4994311;28;20058;-73
2022/10/04 12:02:46;;;;;;;4.10;1.60;;;;;;;10.86;76.31;100282.97;4994808;28;20029;-72
2022/10/04 12:05:22;;;;;;;4.63;1.58;;;;;;;10.78;75.63;100288.38;4994383;28;20054;-71
2022/10/04 12:08:09;;;;;;;2.13;1.90;;;;;;;10.73;76.80;100296.06;4976820;28;20046;-72
2022/10/04 12:10:40;;;;;;;2.53;1.93;;;;;;;10.74;77.10;100284.41;4994363;28;20054;-72
2022/10/04 12:13:18;;;;;;;4.63;1.80;;;;;;;10.88;78.16;100288.13;4994008;28;20027;-73
2022/10/04 12:16:02;;;;;;;5.53;2.58;;;;;;;10.97;77.48;100292.41;4994005;28;20034;-73
2022/10/04 12:18:43;;;;;;;2.73;2.00;;;;;;;11.03;80.00;100298.88;4994155;28;20030;-73
2022/10/04 12:21:33;;;;;;;3.50;1.50;;;;;;;10.95;79.32;100293.59;4994027;28;20492;-72
2022/10/04 12:24:04;;;;;;;2.57;1.83;;;;;;;10.81;78.97;100305.84;4994092;28;20076;-72
2022/10/04 12:26:48;;;;;;;2.17;1.40;;;;;;;10.62;80.09;100312.41;4993773;28;20077;-72
2022/10/04 12:29:44;;;;;;;1.87;1.53;;;;;;;10.48;82.20;100318.47;4994034;28;20054;-72
2022/10/04 12:32:13;;;;;;;3.07;1.70;;;;;;;10.34;82.69;100316.53;4993811;28;20125;-72
2022/10/04 12:34:45;;;;;;;2.63;1.90;;;;;;;10.43;85.19;100320.84;4993635;28;20141;-72
2022/10/04 12:37:24;;;;;;;5.57;3.53;;;;;;;10.57;84.07;100317.44;4993616;28;20045;-72
2022/10/04 12:40:09;;;;;;;2.80;1.47;;;;;;;10.64;82.42;100317.56;4992837;28;20378;-72